sensor_id;sensor_type;location;lat;lon;timestamp;temperature;humidity
70676;DHT22;59069;52.242;20.900;2024-03-08T00:01:47;0.84;72.83
70676;DHT22;59069;52.242;20.900;2024-03-08T00:04:13;0.86;72.83
70676;DHT22;59069;52.242;20.900;2024-03-08T00:06:38;0.83;72.88
70676;DHT22;59069;52.242;20.900;2024-03-08T00:09:04;0.83;72.98
70676;DHT22;59069;52.242;20.900;2024-03-08T00:11:33;0.80;72.93
70676;DHT22;59069;52.242;20.900;2024-03-08T00:13:58;0.80;73.04
70676;DHT22;59069;52.242;20.900;2024-03-08T00:16:24;0.76;73.20
70676;DHT22;59069;52.242;20.900;2024-03-08T00:18:49;0.75;73.34
70676;DHT22;59069;52.242;20.900;2024-03-08T00:21:15;0.76;73.47
70676;DHT22;59069;52.242;20.900;2024-03-08T00:23:40;0.69;73.56
70676;DHT22;59069;52.242;20.900;2024-03-08T00:26:06;0.67;73.75
70676;DHT22;59069;52.242;20.900;2024-03-08T00:28:32;0.67;73.80
70676;DHT22;59069;52.242;20.900;2024-03-08T00:30:59;0.66;73.73
70676;DHT22;59069;52.242;20.900;2024-03-08T00:33:25;0.66;73.84
70676;DHT22;59069;52.242;20.900;2024-03-08T00:35:50;0.63;73.90
70676;DHT22;59069;52.242;20.900;2024-03-08T00:38:16;0.63;74.04
70676;DHT22;59069;52.242;20.900;2024-03-08T00:40:41;0.63;74.08
70676;DHT22;59069;52.242;20.900;2024-03-08T00:43:07;0.62;74.04
70676;DHT22;59069;52.242;20.900;2024-03-08T00:45:32;0.60;74.11
70676;DHT22;59069;52.242;20.900;2024-03-08T00:47:58;0.60;74.17
70676;DHT22;59069;52.242;20.900;2024-03-08T00:50:23;0.58;74.19
70676;DHT22;59069;52.242;20.900;2024-03-08T00:52:48;0.56;74.27
70676;DHT22;59069;52.242;20.900;2024-03-08T00:55:14;0.55;74.33
70676;DHT22;59069;52.242;20.900;2024-03-08T00:57:40;0.53;74.43
70676;DHT22;59069;52.242;20.900;2024-03-08T01:00:06;0.52;74.52
70676;DHT22;59069;52.242;20.900;2024-03-08T01:02:38;0.49;74.63
70676;DHT22;59069;52.242;20.900;2024-03-08T01:05:03;0.48;74.77
70676;DHT22;59069;52.242;20.900;2024-03-08T01:07:35;0.45;74.90
70676;DHT22;59069;52.242;20.900;2024-03-08T01:10:02;0.46;75.00
70676;DHT22;59069;52.242;20.900;2024-03-08T01:12:28;0.45;75.09
70676;DHT22;59069;52.242;20.900;2024-03-08T01:14:54;0.45;75.11
70676;DHT22;59069;52.242;20.900;2024-03-08T01:17:20;0.44;75.25
70676;DHT22;59069;52.242;20.900;2024-03-08T01:19:45;0.42;75.25
70676;DHT22;59069;52.242;20.900;2024-03-08T01:22:10;0.42;75.37
70676;DHT22;59069;52.242;20.900;2024-03-08T01:24:36;0.44;75.33
70676;DHT22;59069;52.242;20.900;2024-03-08T01:27:02;0.44;75.31
70676;DHT22;59069;52.242;20.900;2024-03-08T01:29:28;0.44;75.36
70676;DHT22;59069;52.242;20.900;2024-03-08T01:31:57;0.42;75.47
70676;DHT22;59069;52.242;20.900;2024-03-08T01:34:25;0.42;75.54
70676;DHT22;59069;52.242;20.900;2024-03-08T01:36:50;0.39;75.59
70676;DHT22;59069;52.242;20.900;2024-03-08T01:39:16;0.38;75.61
70676;DHT22;59069;52.242;20.900;2024-03-08T01:41:42;0.39;75.57
70676;DHT22;59069;52.242;20.900;2024-03-08T01:44:07;0.36;75.63
70676;DHT22;59069;52.242;20.900;2024-03-08T01:46:33;0.35;75.70
70676;DHT22;59069;52.242;20.900;2024-03-08T01:48:59;0.32;75.73
70676;DHT22;59069;52.242;20.900;2024-03-08T01:51:29;0.32;75.84
70676;DHT22;59069;52.242;20.900;2024-03-08T01:53:56;0.30;75.87
70676;DHT22;59069;52.242;20.900;2024-03-08T01:56:23;0.32;75.84
70676;DHT22;59069;52.242;20.900;2024-03-08T01:58:50;0.30;75.96
70676;DHT22;59069;52.242;20.900;2024-03-08T02:01:16;0.28;75.97
70676;DHT22;59069;52.242;20.900;2024-03-08T02:03:44;0.26;76.09
70676;DHT22;59069;52.242;20.900;2024-03-08T02:06:13;0.24;76.29
70676;DHT22;59069;52.242;20.900;2024-03-08T02:08:41;0.21;76.30
70676;DHT22;59069;52.242;20.900;2024-03-08T02:11:07;0.19;76.42
70676;DHT22;59069;52.242;20.900;2024-03-08T02:13:32;0.21;76.43
70676;DHT22;59069;52.242;20.900;2024-03-08T02:16:00;0.19;76.45
70676;DHT22;59069;52.242;20.900;2024-03-08T02:18:26;0.17;76.53
70676;DHT22;59069;52.242;20.900;2024-03-08T02:20:53;0.17;76.47
70676;DHT22;59069;52.242;20.900;2024-03-08T02:23:19;0.15;76.56
70676;DHT22;59069;52.242;20.900;2024-03-08T02:25:45;0.15;76.59
70676;DHT22;59069;52.242;20.900;2024-03-08T02:28:11;0.11;76.74
70676;DHT22;59069;52.242;20.900;2024-03-08T02:30:37;0.11;76.82
70676;DHT22;59069;52.242;20.900;2024-03-08T02:33:04;0.09;76.80
70676;DHT22;59069;52.242;20.900;2024-03-08T02:35:29;0.11;76.76
70676;DHT22;59069;52.242;20.900;2024-03-08T02:37:55;0.09;76.82
70676;DHT22;59069;52.242;20.900;2024-03-08T02:40:20;0.11;76.90
70676;DHT22;59069;52.242;20.900;2024-03-08T02:42:47;0.08;76.92
70676;DHT22;59069;52.242;20.900;2024-03-08T02:45:12;0.09;76.95
70676;DHT22;59069;52.242;20.900;2024-03-08T02:47:38;0.07;76.96
70676;DHT22;59069;52.242;20.900;2024-03-08T02:50:05;0.04;76.99
70676;DHT22;59069;52.242;20.900;2024-03-08T02:52:36;0.05;77.04
70676;DHT22;59069;52.242;20.900;2024-03-08T02:55:02;0.07;77.07
70676;DHT22;59069;52.242;20.900;2024-03-08T02:57:27;0.04;76.98
70676;DHT22;59069;52.242;20.900;2024-03-08T02:59:56;0.01;77.01
70676;DHT22;59069;52.242;20.900;2024-03-08T03:02:21;-0.01;77.05
70676;DHT22;59069;52.242;20.900;2024-03-08T03:04:48;-0.03;77.22
70676;DHT22;59069;52.242;20.900;2024-03-08T03:07:14;-0.02;77.26
70676;DHT22;59069;52.242;20.900;2024-03-08T03:09:39;-0.05;77.24
70676;DHT22;59069;52.242;20.900;2024-03-08T03:12:04;-0.05;77.21
70676;DHT22;59069;52.242;20.900;2024-03-08T03:14:35;-0.07;77.30
70676;DHT22;59069;52.242;20.900;2024-03-08T03:17:03;-0.12;77.38
70676;DHT22;59069;52.242;20.900;2024-03-08T03:19:30;-0.12;77.43
70676;DHT22;59069;52.242;20.900;2024-03-08T03:21:55;-0.12;77.47
70676;DHT22;59069;52.242;20.900;2024-03-08T03:24:20;-0.15;77.51
70676;DHT22;59069;52.242;20.900;2024-03-08T03:26:46;-0.15;77.47
70676;DHT22;59069;52.242;20.900;2024-03-08T03:29:14;-0.16;77.49
70676;DHT22;59069;52.242;20.900;2024-03-08T03:31:40;-0.17;77.51
70676;DHT22;59069;52.242;20.900;2024-03-08T03:34:06;-0.22;77.72
70676;DHT22;59069;52.242;20.900;2024-03-08T03:36:34;-0.24;77.87
70676;DHT22;59069;52.242;20.900;2024-03-08T03:39:00;-0.24;77.84
70676;DHT22;59069;52.242;20.900;2024-03-08T03:41:37;-0.26;77.80
70676;DHT22;59069;52.242;20.900;2024-03-08T03:44:04;-0.23;77.77
70676;DHT22;59069;52.242;20.900;2024-03-08T03:46:30;-0.24;77.77
70676;DHT22;59069;52.242;20.900;2024-03-08T03:48:56;-0.26;77.81
70676;DHT22;59069;52.242;20.900;2024-03-08T03:51:21;-0.24;77.82
70676;DHT22;59069;52.242;20.900;2024-03-08T03:53:46;-0.24;77.84
70676;DHT22;59069;52.242;20.900;2024-03-08T03:56:12;-0.30;77.93
70676;DHT22;59069;52.242;20.900;2024-03-08T03:58:37;-0.30;78.02
70676;DHT22;59069;52.242;20.900;2024-03-08T04:01:06;-0.32;78.06
70676;DHT22;59069;52.242;20.900;2024-03-08T04:03:31;-0.36;78.17
70676;DHT22;59069;52.242;20.900;2024-03-08T04:05:57;-0.33;78.28
70676;DHT22;59069;52.242;20.900;2024-03-08T04:08:22;-0.36;78.24
70676;DHT22;59069;52.242;20.900;2024-03-08T04:10:49;-0.36;78.39
70676;DHT22;59069;52.242;20.900;2024-03-08T04:13:14;-0.38;78.55
70676;DHT22;59069;52.242;20.900;2024-03-08T04:15:41;-0.41;78.56
70676;DHT22;59069;52.242;20.900;2024-03-08T04:18:08;-0.38;78.62
70676;DHT22;59069;52.242;20.900;2024-03-08T04:20:34;-0.38;78.69
70676;DHT22;59069;52.242;20.900;2024-03-08T04:22:59;-0.40;78.76
70676;DHT22;59069;52.242;20.900;2024-03-08T04:25:25;-0.44;78.89
70676;DHT22;59069;52.242;20.900;2024-03-08T04:27:51;-0.49;78.93
70676;DHT22;59069;52.242;20.900;2024-03-08T04:30:17;-0.47;78.98
70676;DHT22;59069;52.242;20.900;2024-03-08T04:32:43;-0.46;78.95
70676;DHT22;59069;52.242;20.900;2024-03-08T04:35:09;-0.46;78.93
70676;DHT22;59069;52.242;20.900;2024-03-08T04:37:34;-0.47;79.01
70676;DHT22;59069;52.242;20.900;2024-03-08T04:39:59;-0.49;78.99
70676;DHT22;59069;52.242;20.900;2024-03-08T04:42:26;-0.47;79.02
70676;DHT22;59069;52.242;20.900;2024-03-08T04:44:52;-0.50;79.05
70676;DHT22;59069;52.242;20.900;2024-03-08T04:47:18;-0.50;79.15
70676;DHT22;59069;52.242;20.900;2024-03-08T04:49:44;-0.54;79.26
70676;DHT22;59069;52.242;20.900;2024-03-08T04:52:09;-0.54;79.25
70676;DHT22;59069;52.242;20.900;2024-03-08T04:54:35;-0.52;79.17
70676;DHT22;59069;52.242;20.900;2024-03-08T04:57:00;-0.54;79.24
70676;DHT22;59069;52.242;20.900;2024-03-08T04:59:28;-0.52;79.29
70676;DHT22;59069;52.242;20.900;2024-03-08T05:01:54;-0.54;79.32
70676;DHT22;59069;52.242;20.900;2024-03-08T05:04:19;-0.54;79.37
70676;DHT22;59069;52.242;20.900;2024-03-08T05:06:44;-0.52;79.42
70676;DHT22;59069;52.242;20.900;2024-03-08T05:09:10;-0.54;79.55
70676;DHT22;59069;52.242;20.900;2024-03-08T05:11:43;-0.53;79.52
70676;DHT22;59069;52.242;20.900;2024-03-08T05:14:09;-0.54;79.56
70676;DHT22;59069;52.242;20.900;2024-03-08T05:16:35;-0.54;79.59
70676;DHT22;59069;52.242;20.900;2024-03-08T05:19:01;-0.53;79.61
70676;DHT22;59069;52.242;20.900;2024-03-08T05:21:27;-0.53;79.64
70676;DHT22;59069;52.242;20.900;2024-03-08T05:23:54;-0.50;79.71
70676;DHT22;59069;52.242;20.900;2024-03-08T05:26:19;-0.49;79.73
70676;DHT22;59069;52.242;20.900;2024-03-08T05:28:44;-0.47;79.79
70676;DHT22;59069;52.242;20.900;2024-03-08T05:31:10;-0.46;79.89
70676;DHT22;59069;52.242;20.900;2024-03-08T05:33:35;-0.41;79.94
70676;DHT22;59069;52.242;20.900;2024-03-08T05:36:01;-0.40;79.93
70676;DHT22;59069;52.242;20.900;2024-03-08T05:38:27;-0.33;80.14
70676;DHT22;59069;52.242;20.900;2024-03-08T05:40:53;-0.27;80.40
70676;DHT22;59069;52.242;20.900;2024-03-08T05:43:19;-0.19;80.56
70676;DHT22;59069;52.242;20.900;2024-03-08T05:45:45;-0.12;80.63
70676;DHT22;59069;52.242;20.900;2024-03-08T05:48:11;0.01;80.65
70676;DHT22;59069;52.242;20.900;2024-03-08T05:50:38;0.11;80.57
70676;DHT22;59069;52.242;20.900;2024-03-08T05:53:04;0.24;80.48
70676;DHT22;59069;52.242;20.900;2024-03-08T05:55:32;0.32;80.49
70676;DHT22;59069;52.242;20.900;2024-03-08T05:58:00;0.45;80.30
70676;DHT22;59069;52.242;20.900;2024-03-08T06:00:26;0.56;80.19
70676;DHT22;59069;52.242;20.900;2024-03-08T06:02:51;0.65;79.98
70676;DHT22;59069;52.242;20.900;2024-03-08T06:05:17;0.76;79.76
70676;DHT22;59069;52.242;20.900;2024-03-08T06:07:42;0.91;79.43
70676;DHT22;59069;52.242;20.900;2024-03-08T06:10:09;1.00;79.17
70676;DHT22;59069;52.242;20.900;2024-03-08T06:12:38;1.13;78.85
70676;DHT22;59069;52.242;20.900;2024-03-08T06:15:07;1.24;78.41
70676;DHT22;59069;52.242;20.900;2024-03-08T06:17:34;1.32;78.03
70676;DHT22;59069;52.242;20.900;2024-03-08T06:20:00;1.45;77.85
70676;DHT22;59069;52.242;20.900;2024-03-08T06:22:25;1.55;77.72
70676;DHT22;59069;52.242;20.900;2024-03-08T06:24:51;1.66;77.23
70676;DHT22;59069;52.242;20.900;2024-03-08T06:27:16;1.80;76.91
70676;DHT22;59069;52.242;20.900;2024-03-08T06:29:42;1.90;76.52
70676;DHT22;59069;52.242;20.900;2024-03-08T06:32:08;2.06;76.29
70676;DHT22;59069;52.242;20.900;2024-03-08T06:34:33;2.14;75.79
70676;DHT22;59069;52.242;20.900;2024-03-08T06:37:01;2.29;75.32
70676;DHT22;59069;52.242;20.900;2024-03-08T06:39:27;2.38;74.86
70676;DHT22;59069;52.242;20.900;2024-03-08T06:41:57;2.51;74.54
70676;DHT22;59069;52.242;20.900;2024-03-08T06:44:22;2.70;74.36
70676;DHT22;59069;52.242;20.900;2024-03-08T06:46:47;2.82;74.08
70676;DHT22;59069;52.242;20.900;2024-03-08T06:49:13;2.99;73.93
70676;DHT22;59069;52.242;20.900;2024-03-08T06:51:40;3.13;74.21
70676;DHT22;59069;52.242;20.900;2024-03-08T06:54:06;3.30;73.95
70676;DHT22;59069;52.242;20.900;2024-03-08T06:56:37;3.43;73.72
70676;DHT22;59069;52.242;20.900;2024-03-08T06:59:03;3.60;73.27
70676;DHT22;59069;52.242;20.900;2024-03-08T07:01:28;3.76;72.54
70676;DHT22;59069;52.242;20.900;2024-03-08T07:03:57;3.88;72.22
70676;DHT22;59069;52.242;20.900;2024-03-08T07:06:23;4.01;71.67
70676;DHT22;59069;52.242;20.900;2024-03-08T07:08:48;4.12;71.22
70676;DHT22;59069;52.242;20.900;2024-03-08T07:11:14;4.24;70.70
70676;DHT22;59069;52.242;20.900;2024-03-08T07:13:44;4.38;70.53
70676;DHT22;59069;52.242;20.900;2024-03-08T07:16:10;4.55;70.66
70676;DHT22;59069;52.242;20.900;2024-03-08T07:18:37;4.76;70.59
70676;DHT22;59069;52.242;20.900;2024-03-08T07:21:05;5.00;70.04
70676;DHT22;59069;52.242;20.900;2024-03-08T07:23:30;5.24;70.20
70676;DHT22;59069;52.242;20.900;2024-03-08T07:26:15;5.49;68.77
70676;DHT22;59069;52.242;20.900;2024-03-08T07:28:40;5.68;67.10
70676;DHT22;59069;52.242;20.900;2024-03-08T07:31:06;5.86;65.90
70676;DHT22;59069;52.242;20.900;2024-03-08T07:33:37;5.95;65.06
70676;DHT22;59069;52.242;20.900;2024-03-08T07:36:03;6.00;64.66
70676;DHT22;59069;52.242;20.900;2024-03-08T07:38:29;6.03;64.41
70676;DHT22;59069;52.242;20.900;2024-03-08T07:40:54;6.12;64.59
70676;DHT22;59069;52.242;20.900;2024-03-08T07:43:22;6.14;63.93
70676;DHT22;59069;52.242;20.900;2024-03-08T07:45:48;6.24;63.25
70676;DHT22;59069;52.242;20.900;2024-03-08T07:48:13;6.29;62.60
70676;DHT22;59069;52.242;20.900;2024-03-08T07:50:40;6.34;62.07
70676;DHT22;59069;52.242;20.900;2024-03-08T07:53:06;6.40;61.98
70676;DHT22;59069;52.242;20.900;2024-03-08T07:55:32;6.48;62.27
70676;DHT22;59069;52.242;20.900;2024-03-08T07:57:58;6.58;61.77
70676;DHT22;59069;52.242;20.900;2024-03-08T08:00:24;6.70;61.65
70676;DHT22;59069;52.242;20.900;2024-03-08T08:02:49;6.81;61.16
70676;DHT22;59069;52.242;20.900;2024-03-08T08:05:15;6.99;60.74
70676;DHT22;59069;52.242;20.900;2024-03-08T08:07:46;7.20;61.03
70676;DHT22;59069;52.242;20.900;2024-03-08T08:10:14;7.63;70.66
70676;DHT22;59069;52.242;20.900;2024-03-08T08:12:47;8.05;71.24
70676;DHT22;59069;52.242;20.900;2024-03-08T08:15:13;8.60;71.11
70676;DHT22;59069;52.242;20.900;2024-03-08T08:17:43;9.34;69.34
70676;DHT22;59069;52.242;20.900;2024-03-08T08:20:12;10.19;61.33
70676;DHT22;59069;52.242;20.900;2024-03-08T08:22:41;11.02;53.79
70676;DHT22;59069;52.242;20.900;2024-03-08T08:25:08;11.74;50.69
70676;DHT22;59069;52.242;20.900;2024-03-08T08:27:34;12.42;52.57
70676;DHT22;59069;52.242;20.900;2024-03-08T08:30:02;13.36;47.33
70676;DHT22;59069;52.242;20.900;2024-03-08T08:32:27;14.09;41.58
70676;DHT22;59069;52.242;20.900;2024-03-08T08:34:53;14.47;38.16
70676;DHT22;59069;52.242;20.900;2024-03-08T08:37:18;14.75;39.01
70676;DHT22;59069;52.242;20.900;2024-03-08T08:39:43;15.28;37.04
70676;DHT22;59069;52.242;20.900;2024-03-08T08:42:09;15.56;34.49
70676;DHT22;59069;52.242;20.900;2024-03-08T08:44:37;15.61;32.19
70676;DHT22;59069;52.242;20.900;2024-03-08T08:47:03;15.52;32.64
70676;DHT22;59069;52.242;20.900;2024-03-08T08:49:29;15.47;32.89
70676;DHT22;59069;52.242;20.900;2024-03-08T08:51:56;15.90;34.23
70676;DHT22;59069;52.242;20.900;2024-03-08T08:54:23;16.51;31.09
70676;DHT22;59069;52.242;20.900;2024-03-08T08:56:50;17.07;33.56
70676;DHT22;59069;52.242;20.900;2024-03-08T08:59:16;17.81;31.86
70676;DHT22;59069;52.242;20.900;2024-03-08T09:01:45;18.65;29.70
70676;DHT22;59069;52.242;20.900;2024-03-08T09:04:12;19.24;25.69
70676;DHT22;59069;52.242;20.900;2024-03-08T09:06:38;19.31;25.56
70676;DHT22;59069;52.242;20.900;2024-03-08T09:09:06;19.06;24.64
70676;DHT22;59069;52.242;20.900;2024-03-08T09:11:34;18.61;25.61
70676;DHT22;59069;52.242;20.900;2024-03-08T09:13:59;18.31;25.23
70676;DHT22;59069;52.242;20.900;2024-03-08T09:16:27;17.86;26.95
70676;DHT22;59069;52.242;20.900;2024-03-08T09:18:52;17.47;25.22
70676;DHT22;59069;52.242;20.900;2024-03-08T09:21:17;17.20;25.53
70676;DHT22;59069;52.242;20.900;2024-03-08T09:23:43;17.09;28.01
70676;DHT22;59069;52.242;20.900;2024-03-08T09:26:10;16.87;26.68
70676;DHT22;59069;52.242;20.900;2024-03-08T09:28:38;16.85;28.74
70676;DHT22;59069;52.242;20.900;2024-03-08T09:31:03;17.29;26.44
70676;DHT22;59069;52.242;20.900;2024-03-08T09:33:30;17.43;27.05
70676;DHT22;59069;52.242;20.900;2024-03-08T09:35:56;17.54;28.40
70676;DHT22;59069;52.242;20.900;2024-03-08T09:38:25;17.56;25.73
70676;DHT22;59069;52.242;20.900;2024-03-08T09:40:51;17.73;25.86
70676;DHT22;59069;52.242;20.900;2024-03-08T09:43:16;18.10;28.56
70676;DHT22;59069;52.242;20.900;2024-03-08T09:45:45;18.52;27.53
70676;DHT22;59069;52.242;20.900;2024-03-08T09:48:11;18.63;22.33
70676;DHT22;59069;52.242;20.900;2024-03-08T09:50:38;18.61;25.30
70676;DHT22;59069;52.242;20.900;2024-03-08T09:53:04;18.99;26.96
70676;DHT22;59069;52.242;20.900;2024-03-08T09:55:35;19.57;26.85
70676;DHT22;59069;52.242;20.900;2024-03-08T09:58:02;20.19;25.59
70676;DHT22;59069;52.242;20.900;2024-03-08T10:00:52;21.20;25.31
70676;DHT22;59069;52.242;20.900;2024-03-08T10:03:19;21.92;23.12
70676;DHT22;59069;52.242;20.900;2024-03-08T10:05:44;22.30;21.92
70676;DHT22;59069;52.242;20.900;2024-03-08T10:08:10;22.57;20.87
70676;DHT22;59069;52.242;20.900;2024-03-08T10:10:36;22.36;21.04
70676;DHT22;59069;52.242;20.900;2024-03-08T10:13:05;22.06;21.15
70676;DHT22;59069;52.242;20.900;2024-03-08T10:15:31;21.66;21.06
70676;DHT22;59069;52.242;20.900;2024-03-08T10:17:58;21.34;21.35
70676;DHT22;59069;52.242;20.900;2024-03-08T10:20:24;21.12;20.23
70676;DHT22;59069;52.242;20.900;2024-03-08T10:22:49;20.74;20.37
70676;DHT22;59069;52.242;20.900;2024-03-08T10:25:16;20.37;20.15
70676;DHT22;59069;52.242;20.900;2024-03-08T10:27:42;19.77;20.82
70676;DHT22;59069;52.242;20.900;2024-03-08T10:30:15;19.27;24.65
70676;DHT22;59069;52.242;20.900;2024-03-08T10:32:45;18.65;22.19
70676;DHT22;59069;52.242;20.900;2024-03-08T10:35:10;18.01;25.76
70676;DHT22;59069;52.242;20.900;2024-03-08T10:37:45;17.69;24.51
70676;DHT22;59069;52.242;20.900;2024-03-08T10:40:16;17.20;26.26
70676;DHT22;59069;52.242;20.900;2024-03-08T10:42:56;16.88;25.85
70676;DHT22;59069;52.242;20.900;2024-03-08T10:48:25;17.36;31.66
70676;DHT22;59069;52.242;20.900;2024-03-08T10:50:47;17.97;26.31
70676;DHT22;59069;52.242;20.900;2024-03-08T10:53:17;17.81;23.15
70676;DHT22;59069;52.242;20.900;2024-03-08T10:55:43;17.18;24.33
70676;DHT22;59069;52.242;20.900;2024-03-08T10:58:09;16.24;25.11
70676;DHT22;59069;52.242;20.900;2024-03-08T11:00:35;15.31;25.79
70676;DHT22;59069;52.242;20.900;2024-03-08T11:03:01;14.60;27.06
70676;DHT22;59069;52.242;20.900;2024-03-08T11:05:41;13.85;28.32
70676;DHT22;59069;52.242;20.900;2024-03-08T11:08:27;13.09;29.66
70676;DHT22;59069;52.242;20.900;2024-03-08T11:10:56;12.40;30.50
70676;DHT22;59069;52.242;20.900;2024-03-08T11:13:41;11.82;31.92
70676;DHT22;59069;52.242;20.900;2024-03-08T11:16:12;11.39;32.83
70676;DHT22;59069;52.242;20.900;2024-03-08T11:19:01;11.11;33.98
70676;DHT22;59069;52.242;20.900;2024-03-08T11:21:31;10.91;34.32
70676;DHT22;59069;52.242;20.900;2024-03-08T11:24:02;10.72;34.82
70676;DHT22;59069;52.242;20.900;2024-03-08T11:26:29;10.56;35.67
70676;DHT22;59069;52.242;20.900;2024-03-08T11:34:40;10.28;36.74
70676;DHT22;59069;52.242;20.900;2024-03-08T11:37:16;10.16;37.19
70676;DHT22;59069;52.242;20.900;2024-03-08T11:39:54;10.09;37.28
70676;DHT22;59069;52.242;20.900;2024-03-08T11:42:24;10.10;37.10
70676;DHT22;59069;52.242;20.900;2024-03-08T11:44:51;10.00;37.19
70676;DHT22;59069;52.242;20.900;2024-03-08T11:47:17;9.98;37.52
70676;DHT22;59069;52.242;20.900;2024-03-08T11:49:43;9.92;37.75
70676;DHT22;59069;52.242;20.900;2024-03-08T11:52:14;9.95;37.59
70676;DHT22;59069;52.242;20.900;2024-03-08T11:54:43;9.93;37.68
70676;DHT22;59069;52.242;20.900;2024-03-08T11:57:12;9.88;37.73
70676;DHT22;59069;52.242;20.900;2024-03-08T11:59:38;9.88;38.40
70676;DHT22;59069;52.242;20.900;2024-03-08T12:02:05;9.85;38.87
70676;DHT22;59069;52.242;20.900;2024-03-08T12:04:31;9.79;38.95
70676;DHT22;59069;52.242;20.900;2024-03-08T12:06:59;9.72;39.16
70676;DHT22;59069;52.242;20.900;2024-03-08T12:09:33;9.67;39.33
70676;DHT22;59069;52.242;20.900;2024-03-08T12:12:01;9.67;39.15
70676;DHT22;59069;52.242;20.900;2024-03-08T12:14:28;9.58;39.12
70676;DHT22;59069;52.242;20.900;2024-03-08T12:16:54;9.55;39.30
70676;DHT22;59069;52.242;20.900;2024-03-08T12:19:19;9.54;39.41
70676;DHT22;59069;52.242;20.900;2024-03-08T12:21:45;9.55;39.12
70676;DHT22;59069;52.242;20.900;2024-03-08T12:24:17;9.57;39.23
70676;DHT22;59069;52.242;20.900;2024-03-08T12:26:47;9.61;39.35
70676;DHT22;59069;52.242;20.900;2024-03-08T12:31:46;9.69;39.47
70676;DHT22;59069;52.242;20.900;2024-03-08T12:34:12;9.68;39.07
70676;DHT22;59069;52.242;20.900;2024-03-08T12:36:44;9.68;39.36
70676;DHT22;59069;52.242;20.900;2024-03-08T12:39:13;9.71;39.75
70676;DHT22;59069;52.242;20.900;2024-03-08T12:41:41;9.74;39.53
70676;DHT22;59069;52.242;20.900;2024-03-08T12:44:06;9.75;39.52
70676;DHT22;59069;52.242;20.900;2024-03-08T12:46:37;9.79;39.46
70676;DHT22;59069;52.242;20.900;2024-03-08T12:49:07;9.79;39.65
70676;DHT22;59069;52.242;20.900;2024-03-08T12:51:33;9.72;39.72
70676;DHT22;59069;52.242;20.900;2024-03-08T12:53:58;9.69;39.93
70676;DHT22;59069;52.242;20.900;2024-03-08T12:56:35;9.63;39.82
70676;DHT22;59069;52.242;20.900;2024-03-08T12:59:03;9.65;39.93
70676;DHT22;59069;52.242;20.900;2024-03-08T13:01:30;9.65;39.97
70676;DHT22;59069;52.242;20.900;2024-03-08T13:03:57;9.71;39.61
70676;DHT22;59069;52.242;20.900;2024-03-08T13:06:23;9.81;39.51
70676;DHT22;59069;52.242;20.900;2024-03-08T13:08:50;9.83;39.20
70676;DHT22;59069;52.242;20.900;2024-03-08T13:11:17;9.85;38.93
70676;DHT22;59069;52.242;20.900;2024-03-08T13:13:45;9.89;38.56
70676;DHT22;59069;52.242;20.900;2024-03-08T13:16:10;9.95;38.25
70676;DHT22;59069;52.242;20.900;2024-03-08T13:18:37;10.05;37.97
70676;DHT22;59069;52.242;20.900;2024-03-08T13:21:03;10.14;37.74
70676;DHT22;59069;52.242;20.900;2024-03-08T13:23:32;10.33;37.04
70676;DHT22;59069;52.242;20.900;2024-03-08T13:25:58;10.81;36.69
70676;DHT22;59069;52.242;20.900;2024-03-08T13:28:24;12.65;50.87
70676;DHT22;59069;52.242;20.900;2024-03-08T13:30:55;14.73;39.73
70676;DHT22;59069;52.242;20.900;2024-03-08T13:33:23;16.81;34.68
70676;DHT22;59069;52.242;20.900;2024-03-08T13:35:49;18.59;31.06
70676;DHT22;59069;52.242;20.900;2024-03-08T13:38:15;20.13;27.63
70676;DHT22;59069;52.242;20.900;2024-03-08T13:40:40;21.28;25.09
70676;DHT22;59069;52.242;20.900;2024-03-08T13:43:06;22.24;22.83
70676;DHT22;59069;52.242;20.900;2024-03-08T13:45:34;22.99;21.18
70676;DHT22;59069;52.242;20.900;2024-03-08T13:48:03;23.25;19.76
70676;DHT22;59069;52.242;20.900;2024-03-08T13:50:30;23.70;19.07
70676;DHT22;59069;52.242;20.900;2024-03-08T13:52:56;24.10;18.69
70676;DHT22;59069;52.242;20.900;2024-03-08T13:55:22;24.71;18.32
70676;DHT22;59069;52.242;20.900;2024-03-08T13:57:48;25.39;17.79
70676;DHT22;59069;52.242;20.900;2024-03-08T14:00:14;25.94;17.14
70676;DHT22;59069;52.242;20.900;2024-03-08T14:02:40;26.22;16.48
70676;DHT22;59069;52.242;20.900;2024-03-08T14:05:09;26.52;16.49
70676;DHT22;59069;52.242;20.900;2024-03-08T14:07:37;26.86;15.81
70676;DHT22;59069;52.242;20.900;2024-03-08T14:10:02;27.11;15.50
70676;DHT22;59069;52.242;20.900;2024-03-08T14:12:28;27.40;15.47
70676;DHT22;59069;52.242;20.900;2024-03-08T14:14:53;27.38;15.53
70676;DHT22;59069;52.242;20.900;2024-03-08T14:17:19;27.47;15.40
70676;DHT22;59069;52.242;20.900;2024-03-08T14:19:45;27.57;15.06
70676;DHT22;59069;52.242;20.900;2024-03-08T14:22:10;27.71;14.81
70676;DHT22;59069;52.242;20.900;2024-03-08T14:24:42;27.95;14.21
70676;DHT22;59069;52.242;20.900;2024-03-08T14:27:09;27.99;14.43
70676;DHT22;59069;52.242;20.900;2024-03-08T14:29:35;28.01;14.45
70676;DHT22;59069;52.242;20.900;2024-03-08T14:32:00;28.02;14.18
70676;DHT22;59069;52.242;20.900;2024-03-08T14:34:28;28.06;13.90
70676;DHT22;59069;52.242;20.900;2024-03-08T14:36:55;27.91;14.03
70676;DHT22;59069;52.242;20.900;2024-03-08T14:39:21;27.73;14.11
70676;DHT22;59069;52.242;20.900;2024-03-08T14:41:55;26.72;14.25
70676;DHT22;59069;52.242;20.900;2024-03-08T14:44:21;24.57;14.40
70676;DHT22;59069;52.242;20.900;2024-03-08T14:46:53;22.54;15.53
70676;DHT22;59069;52.242;20.900;2024-03-08T14:49:19;20.81;16.41
70676;DHT22;59069;52.242;20.900;2024-03-08T14:51:45;19.16;17.94
70676;DHT22;59069;52.242;20.900;2024-03-08T14:54:10;17.73;19.08
70676;DHT22;59069;52.242;20.900;2024-03-08T14:56:39;16.68;20.19
70676;DHT22;59069;52.242;20.900;2024-03-08T14:59:07;15.82;20.91
70676;DHT22;59069;52.242;20.900;2024-03-08T15:01:34;15.16;21.62
70676;DHT22;59069;52.242;20.900;2024-03-08T15:04:01;14.62;22.21
70676;DHT22;59069;52.242;20.900;2024-03-08T15:06:37;14.15;22.70
70676;DHT22;59069;52.242;20.900;2024-03-08T15:09:03;13.70;23.67
70676;DHT22;59069;52.242;20.900;2024-03-08T15:11:45;13.27;24.79
70676;DHT22;59069;52.242;20.900;2024-03-08T15:14:10;13.00;25.17
70676;DHT22;59069;52.242;20.900;2024-03-08T15:16:39;12.78;25.78
70676;DHT22;59069;52.242;20.900;2024-03-08T15:19:08;12.46;26.86
70676;DHT22;59069;52.242;20.900;2024-03-08T15:21:33;12.25;27.26
70676;DHT22;59069;52.242;20.900;2024-03-08T15:24:00;12.00;27.43
70676;DHT22;59069;52.242;20.900;2024-03-08T15:26:27;11.76;27.74
70676;DHT22;59069;52.242;20.900;2024-03-08T15:28:55;11.53;28.10
70676;DHT22;59069;52.242;20.900;2024-03-08T15:31:22;11.33;28.40
70676;DHT22;59069;52.242;20.900;2024-03-08T15:33:50;11.12;28.81